Terminal Aerodrome Forecast
Issued by NWS Jackson, MS

Home | Current Version | Previous Version | Text Only | Print | Product List | Glossary On
Versions: 1 2 3 4 5 6 7 8 9 10 11 12 13
000
FTUS44 KJAN 171132
TAFHBG
TAF
KHBG 171132Z 1712/1812 34008KT P6SM SKC
     FM171500 36011G20KT P6SM SKC
     FM172300 36005KT P6SM SKC=

USA.gov is the U.S. government's official web portal to all federal, state and local government web resources and services.